sensor_id;sensor_type;location;lat;lon;timestamp;temperature;humidity
15483;DHT22;7843;50.330;7.312;2023-03-04T00:01:15;-2.60;99.90
15483;DHT22;7843;50.330;7.312;2023-03-04T00:03:41;-2.60;99.90
15483;DHT22;7843;50.330;7.312;2023-03-04T00:06:08;-2.50;99.90
15483;DHT22;7843;50.330;7.312;2023-03-04T00:08:35;-2.50;99.90
15483;DHT22;7843;50.330;7.312;2023-03-04T00:11:02;-2.40;99.90
15483;DHT22;7843;50.330;7.312;2023-03-04T00:13:29;-2.30;99.90
15483;DHT22;7843;50.330;7.312;2023-03-04T00:15:55;-2.20;99.90
15483;DHT22;7843;50.330;7.312;2023-03-04T00:18:22;-2.20;99.90
15483;DHT22;7843;50.330;7.312;2023-03-04T00:20:49;-2.20;99.90
15483;DHT22;7843;50.330;7.312;2023-03-04T00:23:16;-2.10;99.90
15483;DHT22;7843;50.330;7.312;2023-03-04T00:25:42;-2.00;99.90
15483;DHT22;7843;50.330;7.312;2023-03-04T00:28:09;-1.90;99.90
15483;DHT22;7843;50.330;7.312;2023-03-04T00:30:36;-1.90;99.90
15483;DHT22;7843;50.330;7.312;2023-03-04T00:33:02;-1.80;99.90
15483;DHT22;7843;50.330;7.312;2023-03-04T00:35:29;-1.70;99.90
15483;DHT22;7843;50.330;7.312;2023-03-04T00:37:56;-1.70;99.90
15483;DHT22;7843;50.330;7.312;2023-03-04T00:40:22;-1.60;99.90
15483;DHT22;7843;50.330;7.312;2023-03-04T00:42:49;-1.60;99.90
15483;DHT22;7843;50.330;7.312;2023-03-04T00:45:16;-1.50;99.90
15483;DHT22;7843;50.330;7.312;2023-03-04T00:47:43;-1.50;99.90
15483;DHT22;7843;50.330;7.312;2023-03-04T00:50:10;-1.50;99.90
15483;DHT22;7843;50.330;7.312;2023-03-04T00:52:37;-1.40;99.90
15483;DHT22;7843;50.330;7.312;2023-03-04T00:55:04;-1.40;99.90
15483;DHT22;7843;50.330;7.312;2023-03-04T00:57:32;-1.30;99.90
15483;DHT22;7843;50.330;7.312;2023-03-04T00:59:59;-1.30;99.90
15483;DHT22;7843;50.330;7.312;2023-03-04T01:02:26;-1.30;99.90
15483;DHT22;7843;50.330;7.312;2023-03-04T01:04:52;-1.30;99.90
15483;DHT22;7843;50.330;7.312;2023-03-04T01:07:19;-1.20;99.90
15483;DHT22;7843;50.330;7.312;2023-03-04T01:09:46;-1.30;99.90
15483;DHT22;7843;50.330;7.312;2023-03-04T01:12:12;-1.20;99.90
15483;DHT22;7843;50.330;7.312;2023-03-04T01:14:39;-1.20;99.90
15483;DHT22;7843;50.330;7.312;2023-03-04T01:17:06;-1.20;99.90
15483;DHT22;7843;50.330;7.312;2023-03-04T01:19:32;-1.20;99.90
15483;DHT22;7843;50.330;7.312;2023-03-04T01:21:59;-1.20;99.90
15483;DHT22;7843;50.330;7.312;2023-03-04T01:24:26;-1.20;99.90
15483;DHT22;7843;50.330;7.312;2023-03-04T01:26:52;-1.10;99.90
15483;DHT22;7843;50.330;7.312;2023-03-04T01:29:19;-1.10;99.90
15483;DHT22;7843;50.330;7.312;2023-03-04T01:31:46;-1.10;99.90
15483;DHT22;7843;50.330;7.312;2023-03-04T01:34:12;-1.10;99.90
15483;DHT22;7843;50.330;7.312;2023-03-04T01:36:39;-1.10;99.90
15483;DHT22;7843;50.330;7.312;2023-03-04T01:39:06;-1.00;99.90
15483;DHT22;7843;50.330;7.312;2023-03-04T01:41:32;-1.10;99.90
15483;DHT22;7843;50.330;7.312;2023-03-04T01:44:00;-1.10;99.90
15483;DHT22;7843;50.330;7.312;2023-03-04T01:46:29;-1.00;99.90
15483;DHT22;7843;50.330;7.312;2023-03-04T01:48:56;-1.00;99.90
15483;DHT22;7843;50.330;7.312;2023-03-04T01:51:23;-1.00;99.90
15483;DHT22;7843;50.330;7.312;2023-03-04T01:53:50;-1.00;99.90
15483;DHT22;7843;50.330;7.312;2023-03-04T01:56:36;-0.90;99.90
15483;DHT22;7843;50.330;7.312;2023-03-04T01:59:09;-0.90;99.90
15483;DHT22;7843;50.330;7.312;2023-03-04T02:01:38;-0.90;99.90
15483;DHT22;7843;50.330;7.312;2023-03-04T02:04:06;-0.90;99.90
15483;DHT22;7843;50.330;7.312;2023-03-04T02:06:35;-0.90;99.90
15483;DHT22;7843;50.330;7.312;2023-03-04T02:09:02;-0.90;99.90
15483;DHT22;7843;50.330;7.312;2023-03-04T02:11:29;-0.90;99.90
15483;DHT22;7843;50.330;7.312;2023-03-04T02:13:57;-0.90;99.90
15483;DHT22;7843;50.330;7.312;2023-03-04T02:16:25;-0.80;99.90
15483;DHT22;7843;50.330;7.312;2023-03-04T02:18:52;-0.80;99.90
15483;DHT22;7843;50.330;7.312;2023-03-04T02:21:29;-0.80;99.90
15483;DHT22;7843;50.330;7.312;2023-03-04T02:24:23;-0.80;99.90
15483;DHT22;7843;50.330;7.312;2023-03-04T02:26:52;-0.80;99.90
15483;DHT22;7843;50.330;7.312;2023-03-04T02:29:18;-0.80;99.90
15483;DHT22;7843;50.330;7.312;2023-03-04T02:31:47;-0.80;99.90
15483;DHT22;7843;50.330;7.312;2023-03-04T02:34:23;-0.80;99.90
15483;DHT22;7843;50.330;7.312;2023-03-04T02:36:52;-0.80;99.90
15483;DHT22;7843;50.330;7.312;2023-03-04T02:41:51;-0.70;99.90
15483;DHT22;7843;50.330;7.312;2023-03-04T02:46:45;-0.70;99.90
15483;DHT22;7843;50.330;7.312;2023-03-04T02:49:12;-0.70;99.90
15483;DHT22;7843;50.330;7.312;2023-03-04T02:51:39;-0.70;99.90
15483;DHT22;7843;50.330;7.312;2023-03-04T02:54:26;-0.70;99.90
15483;DHT22;7843;50.330;7.312;2023-03-04T02:56:55;-0.70;99.90
15483;DHT22;7843;50.330;7.312;2023-03-04T02:59:22;-0.70;99.90
15483;DHT22;7843;50.330;7.312;2023-03-04T03:01:49;-0.60;99.90
15483;DHT22;7843;50.330;7.312;2023-03-04T03:04:17;-0.60;99.90
15483;DHT22;7843;50.330;7.312;2023-03-04T03:06:43;-0.60;99.90
15483;DHT22;7843;50.330;7.312;2023-03-04T03:09:10;-0.60;99.90
15483;DHT22;7843;50.330;7.312;2023-03-04T03:11:37;-0.60;99.90
15483;DHT22;7843;50.330;7.312;2023-03-04T03:14:04;-0.60;99.90
15483;DHT22;7843;50.330;7.312;2023-03-04T03:16:31;-0.50;99.90
15483;DHT22;7843;50.330;7.312;2023-03-04T03:18:57;-0.60;99.90
15483;DHT22;7843;50.330;7.312;2023-03-04T03:21:24;-0.50;99.90
15483;DHT22;7843;50.330;7.312;2023-03-04T03:23:51;-0.50;99.90
15483;DHT22;7843;50.330;7.312;2023-03-04T03:26:18;-0.50;99.90
15483;DHT22;7843;50.330;7.312;2023-03-04T03:28:45;-0.50;99.90
15483;DHT22;7843;50.330;7.312;2023-03-04T03:31:12;-0.50;99.90
15483;DHT22;7843;50.330;7.312;2023-03-04T03:33:39;-0.40;99.90
15483;DHT22;7843;50.330;7.312;2023-03-04T03:36:06;-0.40;99.90
15483;DHT22;7843;50.330;7.312;2023-03-04T03:38:33;-0.40;99.90
15483;DHT22;7843;50.330;7.312;2023-03-04T03:41:00;-0.40;99.90
15483;DHT22;7843;50.330;7.312;2023-03-04T03:43:27;-0.40;99.90
15483;DHT22;7843;50.330;7.312;2023-03-04T03:45:53;-0.40;99.90
15483;DHT22;7843;50.330;7.312;2023-03-04T03:48:20;-0.40;99.90
15483;DHT22;7843;50.330;7.312;2023-03-04T03:50:47;-0.40;99.90
15483;DHT22;7843;50.330;7.312;2023-03-04T03:53:13;-0.40;99.90
15483;DHT22;7843;50.330;7.312;2023-03-04T03:55:40;-0.40;99.90
15483;DHT22;7843;50.330;7.312;2023-03-04T03:58:07;-0.30;99.90
15483;DHT22;7843;50.330;7.312;2023-03-04T04:00:34;-0.30;99.90
15483;DHT22;7843;50.330;7.312;2023-03-04T04:03:00;-0.30;99.90
15483;DHT22;7843;50.330;7.312;2023-03-04T04:05:27;-0.30;99.90
15483;DHT22;7843;50.330;7.312;2023-03-04T04:07:54;-0.30;99.90
15483;DHT22;7843;50.330;7.312;2023-03-04T04:10:21;-0.30;99.90
15483;DHT22;7843;50.330;7.312;2023-03-04T04:12:47;-0.20;99.90
15483;DHT22;7843;50.330;7.312;2023-03-04T04:15:14;-0.20;99.90
15483;DHT22;7843;50.330;7.312;2023-03-04T04:17:40;-0.10;99.90
15483;DHT22;7843;50.330;7.312;2023-03-04T04:20:08;-0.10;99.90
15483;DHT22;7843;50.330;7.312;2023-03-04T04:22:35;-0.10;99.90
15483;DHT22;7843;50.330;7.312;2023-03-04T04:25:01;-0.10;99.90
15483;DHT22;7843;50.330;7.312;2023-03-04T04:27:28;-0.10;99.90
15483;DHT22;7843;50.330;7.312;2023-03-04T04:29:54;0.10;99.90
15483;DHT22;7843;50.330;7.312;2023-03-04T04:32:21;0.20;99.90
15483;DHT22;7843;50.330;7.312;2023-03-04T04:34:48;0.40;99.90
15483;DHT22;7843;50.330;7.312;2023-03-04T04:37:14;0.50;99.90
15483;DHT22;7843;50.330;7.312;2023-03-04T04:39:41;0.70;99.90
15483;DHT22;7843;50.330;7.312;2023-03-04T04:42:10;0.70;99.90
15483;DHT22;7843;50.330;7.312;2023-03-04T04:44:37;0.80;99.90
15483;DHT22;7843;50.330;7.312;2023-03-04T04:47:05;0.60;99.90
15483;DHT22;7843;50.330;7.312;2023-03-04T04:49:32;0.50;99.90
15483;DHT22;7843;50.330;7.312;2023-03-04T04:51:59;0.40;99.90
15483;DHT22;7843;50.330;7.312;2023-03-04T04:54:26;0.40;99.90
15483;DHT22;7843;50.330;7.312;2023-03-04T04:56:52;0.40;99.90
15483;DHT22;7843;50.330;7.312;2023-03-04T04:59:19;0.40;99.90
15483;DHT22;7843;50.330;7.312;2023-03-04T05:01:46;0.50;99.90
15483;DHT22;7843;50.330;7.312;2023-03-04T05:04:12;0.60;99.90
15483;DHT22;7843;50.330;7.312;2023-03-04T05:06:39;0.60;99.90
15483;DHT22;7843;50.330;7.312;2023-03-04T05:09:06;0.60;99.90
15483;DHT22;7843;50.330;7.312;2023-03-04T05:11:33;0.60;99.90
15483;DHT22;7843;50.330;7.312;2023-03-04T05:14:00;0.50;99.90
15483;DHT22;7843;50.330;7.312;2023-03-04T05:16:26;0.50;99.90
15483;DHT22;7843;50.330;7.312;2023-03-04T05:18:53;0.50;99.90
15483;DHT22;7843;50.330;7.312;2023-03-04T05:21:19;0.60;99.90
15483;DHT22;7843;50.330;7.312;2023-03-04T05:23:46;0.80;99.90
15483;DHT22;7843;50.330;7.312;2023-03-04T05:26:15;0.80;99.90
15483;DHT22;7843;50.330;7.312;2023-03-04T05:28:43;0.80;99.90
15483;DHT22;7843;50.330;7.312;2023-03-04T05:31:10;0.70;99.90
15483;DHT22;7843;50.330;7.312;2023-03-04T05:33:37;0.60;99.90
15483;DHT22;7843;50.330;7.312;2023-03-04T05:36:05;0.60;99.90
15483;DHT22;7843;50.330;7.312;2023-03-04T05:38:32;0.60;99.90
15483;DHT22;7843;50.330;7.312;2023-03-04T05:41:01;0.60;99.90
15483;DHT22;7843;50.330;7.312;2023-03-04T05:43:29;0.50;99.90
15483;DHT22;7843;50.330;7.312;2023-03-04T05:45:56;0.60;99.90
15483;DHT22;7843;50.330;7.312;2023-03-04T05:48:23;0.60;99.90
15483;DHT22;7843;50.330;7.312;2023-03-04T05:50:58;0.70;99.90
15483;DHT22;7843;50.330;7.312;2023-03-04T05:53:26;0.70;99.90
15483;DHT22;7843;50.330;7.312;2023-03-04T05:55:53;0.70;99.90
15483;DHT22;7843;50.330;7.312;2023-03-04T05:58:20;0.70;99.90
15483;DHT22;7843;50.330;7.312;2023-03-04T06:00:47;0.70;99.90
15483;DHT22;7843;50.330;7.312;2023-03-04T06:03:20;0.90;99.90
15483;DHT22;7843;50.330;7.312;2023-03-04T06:05:47;0.90;99.90
15483;DHT22;7843;50.330;7.312;2023-03-04T06:08:14;1.00;99.90
15483;DHT22;7843;50.330;7.312;2023-03-04T06:10:41;1.10;99.90
15483;DHT22;7843;50.330;7.312;2023-03-04T06:13:08;1.10;99.90
15483;DHT22;7843;50.330;7.312;2023-03-04T06:15:35;1.00;99.90
15483;DHT22;7843;50.330;7.312;2023-03-04T06:18:02;1.00;99.90
15483;DHT22;7843;50.330;7.312;2023-03-04T06:20:29;1.00;99.90
15483;DHT22;7843;50.330;7.312;2023-03-04T06:22:56;0.90;99.90
15483;DHT22;7843;50.330;7.312;2023-03-04T06:25:23;0.90;99.90
15483;DHT22;7843;50.330;7.312;2023-03-04T06:27:50;1.00;99.90
15483;DHT22;7843;50.330;7.312;2023-03-04T06:30:17;1.10;99.90
15483;DHT22;7843;50.330;7.312;2023-03-04T06:32:44;1.20;99.90
15483;DHT22;7843;50.330;7.312;2023-03-04T06:35:12;1.30;99.90
15483;DHT22;7843;50.330;7.312;2023-03-04T06:37:39;1.40;99.90
15483;DHT22;7843;50.330;7.312;2023-03-04T06:40:07;1.50;99.90
15483;DHT22;7843;50.330;7.312;2023-03-04T06:42:34;1.50;99.90
15483;DHT22;7843;50.330;7.312;2023-03-04T06:45:02;1.60;99.90
15483;DHT22;7843;50.330;7.312;2023-03-04T06:47:29;1.60;99.90
15483;DHT22;7843;50.330;7.312;2023-03-04T06:49:56;1.60;99.90
15483;DHT22;7843;50.330;7.312;2023-03-04T06:52:23;1.70;99.90
15483;DHT22;7843;50.330;7.312;2023-03-04T06:54:49;1.70;99.90
15483;DHT22;7843;50.330;7.312;2023-03-04T06:57:17;1.80;99.90
15483;DHT22;7843;50.330;7.312;2023-03-04T06:59:43;1.80;99.90
15483;DHT22;7843;50.330;7.312;2023-03-04T07:02:11;1.80;99.90
15483;DHT22;7843;50.330;7.312;2023-03-04T07:04:38;1.90;99.90
15483;DHT22;7843;50.330;7.312;2023-03-04T07:07:05;1.90;99.90
15483;DHT22;7843;50.330;7.312;2023-03-04T07:09:31;1.90;99.90
15483;DHT22;7843;50.330;7.312;2023-03-04T07:11:58;1.90;99.90
15483;DHT22;7843;50.330;7.312;2023-03-04T07:14:25;1.90;99.90
15483;DHT22;7843;50.330;7.312;2023-03-04T07:16:53;1.90;99.90
15483;DHT22;7843;50.330;7.312;2023-03-04T07:19:20;1.90;99.90
15483;DHT22;7843;50.330;7.312;2023-03-04T07:21:46;2.00;99.90
15483;DHT22;7843;50.330;7.312;2023-03-04T07:24:13;2.20;99.90
15483;DHT22;7843;50.330;7.312;2023-03-04T07:26:40;2.20;99.90
15483;DHT22;7843;50.330;7.312;2023-03-04T07:29:06;2.30;99.90
15483;DHT22;7843;50.330;7.312;2023-03-04T07:31:33;2.30;99.90
15483;DHT22;7843;50.330;7.312;2023-03-04T07:34:03;2.40;99.90
15483;DHT22;7843;50.330;7.312;2023-03-04T07:36:31;2.40;99.90
15483;DHT22;7843;50.330;7.312;2023-03-04T07:38:58;2.40;99.90
15483;DHT22;7843;50.330;7.312;2023-03-04T07:41:27;2.50;99.90
15483;DHT22;7843;50.330;7.312;2023-03-04T07:43:56;2.50;99.90
15483;DHT22;7843;50.330;7.312;2023-03-04T07:46:23;2.50;99.90
15483;DHT22;7843;50.330;7.312;2023-03-04T07:48:50;2.40;99.90
15483;DHT22;7843;50.330;7.312;2023-03-04T07:51:19;2.50;99.90
15483;DHT22;7843;50.330;7.312;2023-03-04T07:53:48;2.50;99.90
15483;DHT22;7843;50.330;7.312;2023-03-04T07:56:18;2.60;99.90
15483;DHT22;7843;50.330;7.312;2023-03-04T07:58:46;2.70;99.90
15483;DHT22;7843;50.330;7.312;2023-03-04T08:01:18;2.80;99.90
15483;DHT22;7843;50.330;7.312;2023-03-04T08:03:45;2.80;99.80
15483;DHT22;7843;50.330;7.312;2023-03-04T08:06:18;2.90;99.80
15483;DHT22;7843;50.330;7.312;2023-03-04T08:08:46;2.90;99.60
15483;DHT22;7843;50.330;7.312;2023-03-04T08:11:16;3.00;99.20
15483;DHT22;7843;50.330;7.312;2023-03-04T08:13:43;3.00;99.30
15483;DHT22;7843;50.330;7.312;2023-03-04T08:16:16;3.00;99.30
15483;DHT22;7843;50.330;7.312;2023-03-04T08:18:48;3.10;99.00
15483;DHT22;7843;50.330;7.312;2023-03-04T08:21:18;3.10;98.80
15483;DHT22;7843;50.330;7.312;2023-03-04T08:23:45;3.20;98.60
15483;DHT22;7843;50.330;7.312;2023-03-04T08:26:19;3.10;98.80
15483;DHT22;7843;50.330;7.312;2023-03-04T08:28:46;3.20;98.80
15483;DHT22;7843;50.330;7.312;2023-03-04T08:31:13;3.20;98.70
15483;DHT22;7843;50.330;7.312;2023-03-04T08:33:41;3.20;98.70
15483;DHT22;7843;50.330;7.312;2023-03-04T08:36:08;3.20;98.60
15483;DHT22;7843;50.330;7.312;2023-03-04T08:38:35;3.20;98.70
15483;DHT22;7843;50.330;7.312;2023-03-04T08:41:01;3.30;98.60
15483;DHT22;7843;50.330;7.312;2023-03-04T08:43:30;3.30;98.50
15483;DHT22;7843;50.330;7.312;2023-03-04T08:45:56;3.30;98.50
15483;DHT22;7843;50.330;7.312;2023-03-04T08:48:23;3.40;98.30
15483;DHT22;7843;50.330;7.312;2023-03-04T08:50:50;3.40;98.00
15483;DHT22;7843;50.330;7.312;2023-03-04T08:53:19;3.40;97.90
15483;DHT22;7843;50.330;7.312;2023-03-04T08:55:45;3.40;98.00
15483;DHT22;7843;50.330;7.312;2023-03-04T08:58:13;3.40;98.10
15483;DHT22;7843;50.330;7.312;2023-03-04T09:00:42;3.50;98.00
15483;DHT22;7843;50.330;7.312;2023-03-04T09:03:13;3.50;98.00
15483;DHT22;7843;50.330;7.312;2023-03-04T09:05:40;3.50;98.00
15483;DHT22;7843;50.330;7.312;2023-03-04T09:08:07;3.60;98.00
15483;DHT22;7843;50.330;7.312;2023-03-04T09:10:33;3.60;97.70
15483;DHT22;7843;50.330;7.312;2023-03-04T09:13:00;3.70;97.20
15483;DHT22;7843;50.330;7.312;2023-03-04T09:15:27;3.70;97.20
15483;DHT22;7843;50.330;7.312;2023-03-04T09:17:54;3.80;97.20
15483;DHT22;7843;50.330;7.312;2023-03-04T09:20:20;3.80;97.00
15483;DHT22;7843;50.330;7.312;2023-03-04T09:22:49;3.80;97.10
15483;DHT22;7843;50.330;7.312;2023-03-04T09:25:15;3.80;96.60
15483;DHT22;7843;50.330;7.312;2023-03-04T09:27:42;3.80;97.10
15483;DHT22;7843;50.330;7.312;2023-03-04T09:30:09;3.90;97.10
15483;DHT22;7843;50.330;7.312;2023-03-04T09:32:36;3.90;97.00
15483;DHT22;7843;50.330;7.312;2023-03-04T09:35:04;3.90;96.90
15483;DHT22;7843;50.330;7.312;2023-03-04T09:37:31;3.80;96.60
15483;DHT22;7843;50.330;7.312;2023-03-04T09:39:57;3.90;96.50
15483;DHT22;7843;50.330;7.312;2023-03-04T09:42:34;3.90;96.30
15483;DHT22;7843;50.330;7.312;2023-03-04T09:45:03;3.90;96.30
15483;DHT22;7843;50.330;7.312;2023-03-04T09:47:33;3.90;96.50
15483;DHT22;7843;50.330;7.312;2023-03-04T09:50:06;3.90;96.10
15483;DHT22;7843;50.330;7.312;2023-03-04T09:52:41;4.00;95.90
15483;DHT22;7843;50.330;7.312;2023-03-04T09:55:23;4.00;96.00
15483;DHT22;7843;50.330;7.312;2023-03-04T09:58:34;4.10;95.80
15483;DHT22;7843;50.330;7.312;2023-03-04T10:01:19;4.00;95.60
15483;DHT22;7843;50.330;7.312;2023-03-04T10:04:16;4.10;95.50
15483;DHT22;7843;50.330;7.312;2023-03-04T10:06:43;4.10;95.60
15483;DHT22;7843;50.330;7.312;2023-03-04T10:09:27;4.20;95.60
15483;DHT22;7843;50.330;7.312;2023-03-04T10:12:03;4.20;95.40
15483;DHT22;7843;50.330;7.312;2023-03-04T10:14:39;4.20;95.50
15483;DHT22;7843;50.330;7.312;2023-03-04T10:17:21;4.20;95.10
15483;DHT22;7843;50.330;7.312;2023-03-04T10:20:23;4.20;95.40
15483;DHT22;7843;50.330;7.312;2023-03-04T10:23:37;4.20;95.10
15483;DHT22;7843;50.330;7.312;2023-03-04T10:25:42;4.20;95.30
15483;DHT22;7843;50.330;7.312;2023-03-04T10:28:30;4.20;95.50
15483;DHT22;7843;50.330;7.312;2023-03-04T10:31:01;4.30;95.30
15483;DHT22;7843;50.330;7.312;2023-03-04T10:33:30;4.30;95.10
15483;DHT22;7843;50.330;7.312;2023-03-04T10:36:17;4.30;95.10
15483;DHT22;7843;50.330;7.312;2023-03-04T10:38:48;4.30;95.30
15483;DHT22;7843;50.330;7.312;2023-03-04T10:41:20;4.40;94.80
15483;DHT22;7843;50.330;7.312;2023-03-04T10:46:26;4.30;95.00
15483;DHT22;7843;50.330;7.312;2023-03-04T10:48:53;4.40;94.80
15483;DHT22;7843;50.330;7.312;2023-03-04T10:51:21;4.30;95.10
15483;DHT22;7843;50.330;7.312;2023-03-04T10:53:51;4.40;95.00
15483;DHT22;7843;50.330;7.312;2023-03-04T10:56:41;4.40;95.10
15483;DHT22;7843;50.330;7.312;2023-03-04T11:02:12;4.60;94.60
15483;DHT22;7843;50.330;7.312;2023-03-04T11:04:42;4.60;94.10
15483;DHT22;7843;50.330;7.312;2023-03-04T11:07:09;4.70;94.20
15483;DHT22;7843;50.330;7.312;2023-03-04T11:09:36;4.70;94.10
15483;DHT22;7843;50.330;7.312;2023-03-04T11:12:11;4.70;94.20
15483;DHT22;7843;50.330;7.312;2023-03-04T11:14:49;4.70;93.80
15483;DHT22;7843;50.330;7.312;2023-03-04T11:17:27;4.90;93.70
15483;DHT22;7843;50.330;7.312;2023-03-04T11:20:12;5.00;93.10
15483;DHT22;7843;50.330;7.312;2023-03-04T11:22:41;5.10;92.50
15483;DHT22;7843;50.330;7.312;2023-03-04T11:25:27;5.30;92.10
15483;DHT22;7843;50.330;7.312;2023-03-04T11:27:58;5.40;91.70
15483;DHT22;7843;50.330;7.312;2023-03-04T11:33:18;5.50;91.60
15483;DHT22;7843;50.330;7.312;2023-03-04T11:38:35;6.10;90.70
15483;DHT22;7843;50.330;7.312;2023-03-04T11:41:15;6.50;89.50
15483;DHT22;7843;50.330;7.312;2023-03-04T11:43:45;6.50;88.40
15483;DHT22;7843;50.330;7.312;2023-03-04T11:49:47;6.40;88.80
15483;DHT22;7843;50.330;7.312;2023-03-04T11:55:46;6.00;88.80
15483;DHT22;7843;50.330;7.312;2023-03-04T11:58:36;5.90;89.60
15483;DHT22;7843;50.330;7.312;2023-03-04T12:01:09;5.80;89.90
15483;DHT22;7843;50.330;7.312;2023-03-04T12:03:43;5.70;90.50
15483;DHT22;7843;50.330;7.312;2023-03-04T12:08:59;5.70;91.30
15483;DHT22;7843;50.330;7.312;2023-03-04T12:19:52;6.10;89.90
15483;DHT22;7843;50.330;7.312;2023-03-04T12:25:11;6.20;89.50
15483;DHT22;7843;50.330;7.312;2023-03-04T12:28:30;6.10;89.60
15483;DHT22;7843;50.330;7.312;2023-03-04T12:31:13;6.20;89.50
15483;DHT22;7843;50.330;7.312;2023-03-04T12:46:10;6.30;89.20
15483;DHT22;7843;50.330;7.312;2023-03-04T12:49:01;6.50;88.80
15483;DHT22;7843;50.330;7.312;2023-03-04T12:51:52;6.50;89.10
15483;DHT22;7843;50.330;7.312;2023-03-04T12:54:40;6.50;89.00
15483;DHT22;7843;50.330;7.312;2023-03-04T12:57:12;6.60;88.90
15483;DHT22;7843;50.330;7.312;2023-03-04T13:10:25;6.70;87.80
15483;DHT22;7843;50.330;7.312;2023-03-04T13:12:55;6.70;88.40
15483;DHT22;7843;50.330;7.312;2023-03-04T13:18:31;6.60;88.90
15483;DHT22;7843;50.330;7.312;2023-03-04T13:21:07;6.50;89.20
15483;DHT22;7843;50.330;7.312;2023-03-04T13:23:41;6.40;89.60
15483;DHT22;7843;50.330;7.312;2023-03-04T13:28:52;6.30;90.30
15483;DHT22;7843;50.330;7.312;2023-03-04T13:31:24;6.30;90.40
15483;DHT22;7843;50.330;7.312;2023-03-04T13:33:55;6.50;90.50
15483;DHT22;7843;50.330;7.312;2023-03-04T13:36:52;6.60;90.00
15483;DHT22;7843;50.330;7.312;2023-03-04T13:39:26;6.80;89.60
15483;DHT22;7843;50.330;7.312;2023-03-04T13:41:54;6.80;89.60
15483;DHT22;7843;50.330;7.312;2023-03-04T13:47:17;6.90;88.50
15483;DHT22;7843;50.330;7.312;2023-03-04T13:49:44;6.80;89.10
15483;DHT22;7843;50.330;7.312;2023-03-04T13:52:37;6.70;88.70
15483;DHT22;7843;50.330;7.312;2023-03-04T13:58:22;6.50;89.40
15483;DHT22;7843;50.330;7.312;2023-03-04T14:00:53;6.40;90.10
15483;DHT22;7843;50.330;7.312;2023-03-04T14:03:29;6.40;90.60
15483;DHT22;7843;50.330;7.312;2023-03-04T14:06:21;6.30;90.70
15483;DHT22;7843;50.330;7.312;2023-03-04T14:08:49;6.20;91.10
15483;DHT22;7843;50.330;7.312;2023-03-04T14:13:58;6.10;91.70
15483;DHT22;7843;50.330;7.312;2023-03-04T14:16:27;6.30;91.80
15483;DHT22;7843;50.330;7.312;2023-03-04T14:18:58;6.30;91.80
15483;DHT22;7843;50.330;7.312;2023-03-04T14:21:27;6.40;91.00
15483;DHT22;7843;50.330;7.312;2023-03-04T14:24:05;6.50;91.00
15483;DHT22;7843;50.330;7.312;2023-03-04T14:26:33;6.50;90.80
15483;DHT22;7843;50.330;7.312;2023-03-04T14:29:00;6.50;90.60
15483;DHT22;7843;50.330;7.312;2023-03-04T14:31:30;6.40;90.70
15483;DHT22;7843;50.330;7.312;2023-03-04T14:34:00;6.40;90.70
15483;DHT22;7843;50.330;7.312;2023-03-04T14:36:32;6.40;90.40
15483;DHT22;7843;50.330;7.312;2023-03-04T14:39:04;6.50;90.60
15483;DHT22;7843;50.330;7.312;2023-03-04T14:41:37;6.40;90.60
15483;DHT22;7843;50.330;7.312;2023-03-04T14:46:47;6.30;91.00
15483;DHT22;7843;50.330;7.312;2023-03-04T14:49:30;6.30;90.60
15483;DHT22;7843;50.330;7.312;2023-03-04T14:51:58;6.20;90.90
15483;DHT22;7843;50.330;7.312;2023-03-04T14:54:35;6.20;91.30
15483;DHT22;7843;50.330;7.312;2023-03-04T14:57:21;6.10;91.30
15483;DHT22;7843;50.330;7.312;2023-03-04T14:59:49;6.20;91.50
15483;DHT22;7843;50.330;7.312;2023-03-04T15:02:23;6.20;91.50
15483;DHT22;7843;50.330;7.312;2023-03-04T15:04:59;6.20;91.50
15483;DHT22;7843;50.330;7.312;2023-03-04T15:07:36;6.20;91.50
15483;DHT22;7843;50.330;7.312;2023-03-04T15:10:07;6.20;91.70
15483;DHT22;7843;50.330;7.312;2023-03-04T15:12:35;6.20;91.70
15483;DHT22;7843;50.330;7.312;2023-03-04T15:15:43;6.20;91.40
15483;DHT22;7843;50.330;7.312;2023-03-04T15:18:17;6.20;91.50
15483;DHT22;7843;50.330;7.312;2023-03-04T15:23:44;6.10;92.10
15483;DHT22;7843;50.330;7.312;2023-03-04T15:26:12;6.10;92.20
15483;DHT22;7843;50.330;7.312;2023-03-04T15:28:40;6.10;92.30
15483;DHT22;7843;50.330;7.312;2023-03-04T15:31:16;6.10;92.20
15483;DHT22;7843;50.330;7.312;2023-03-04T15:33:43;6.10;92.20
15483;DHT22;7843;50.330;7.312;2023-03-04T15:36:30;6.10;92.40
15483;DHT22;7843;50.330;7.312;2023-03-04T15:38:57;6.10;92.20
15483;DHT22;7843;50.330;7.312;2023-03-04T15:41:25;6.10;91.80
15483;DHT22;7843;50.330;7.312;2023-03-04T15:43:53;6.00;92.00
15483;DHT22;7843;50.330;7.312;2023-03-04T15:46:20;6.00;92.20
15483;DHT22;7843;50.330;7.312;2023-03-04T15:48:47;6.00;92.20
15483;DHT22;7843;50.330;7.312;2023-03-04T15:51:19;6.00;92.10
15483;DHT22;7843;50.330;7.312;2023-03-04T15:53:52;6.00;92.10
15483;DHT22;7843;50.330;7.312;2023-03-04T15:56:23;6.00;92.40
15483;DHT22;7843;50.330;7.312;2023-03-04T15:58:56;5.90;92.60
15483;DHT22;7843;50.330;7.312;2023-03-04T16:01:24;5.90;92.70
15483;DHT22;7843;50.330;7.312;2023-03-04T16:03:52;5.90;92.50
15483;DHT22;7843;50.330;7.312;2023-03-04T16:06:20;5.90;92.40
15483;DHT22;7843;50.330;7.312;2023-03-04T16:08:49;5.90;92.50
15483;DHT22;7843;50.330;7.312;2023-03-04T16:11:20;5.80;92.60
15483;DHT22;7843;50.330;7.312;2023-03-04T16:13:47;5.80;92.70
15483;DHT22;7843;50.330;7.312;2023-03-04T16:16:15;5.80;92.80
15483;DHT22;7843;50.330;7.312;2023-03-04T16:18:42;5.80;93.00
15483;DHT22;7843;50.330;7.312;2023-03-04T16:21:12;5.80;93.50
15483;DHT22;7843;50.330;7.312;2023-03-04T16:23:41;5.80;93.70
15483;DHT22;7843;50.330;7.312;2023-03-04T16:26:11;5.80;94.00
15483;DHT22;7843;50.330;7.312;2023-03-04T16:28:40;5.70;94.30
15483;DHT22;7843;50.330;7.312;2023-03-04T16:31:07;5.70;94.40
15483;DHT22;7843;50.330;7.312;2023-03-04T16:33:34;5.70;94.50
15483;DHT22;7843;50.330;7.312;2023-03-04T16:36:01;5.60;94.70
15483;DHT22;7843;50.330;7.312;2023-03-04T16:38:31;5.60;94.70
15483;DHT22;7843;50.330;7.312;2023-03-04T16:41:00;5.60;94.90
15483;DHT22;7843;50.330;7.312;2023-03-04T16:43:30;5.50;95.10
15483;DHT22;7843;50.330;7.312;2023-03-04T16:45:56;5.50;95.30
15483;DHT22;7843;50.330;7.312;2023-03-04T16:48:26;5.50;95.60
15483;DHT22;7843;50.330;7.312;2023-03-04T16:50:53;5.50;95.70
15483;DHT22;7843;50.330;7.312;2023-03-04T16:53:27;5.50;95.80
15483;DHT22;7843;50.330;7.312;2023-03-04T16:55:57;5.50;95.90
15483;DHT22;7843;50.330;7.312;2023-03-04T16:58:24;5.50;95.80
15483;DHT22;7843;50.330;7.312;2023-03-04T17:00:51;5.50;95.90
15483;DHT22;7843;50.330;7.312;2023-03-04T17:03:17;5.40;96.00
15483;DHT22;7843;50.330;7.312;2023-03-04T17:05:47;5.40;96.10
15483;DHT22;7843;50.330;7.312;2023-03-04T17:08:13;5.40;96.10
15483;DHT22;7843;50.330;7.312;2023-03-04T17:10:40;5.40;96.20
15483;DHT22;7843;50.330;7.312;2023-03-04T17:13:07;5.30;96.30
15483;DHT22;7843;50.330;7.312;2023-03-04T17:15:34;5.30;96.30
15483;DHT22;7843;50.330;7.312;2023-03-04T17:18:00;5.30;96.40
15483;DHT22;7843;50.330;7.312;2023-03-04T17:20:27;5.30;96.50
15483;DHT22;7843;50.330;7.312;2023-03-04T17:22:54;5.20;96.60
15483;DHT22;7843;50.330;7.312;2023-03-04T17:25:21;5.20;96.60
15483;DHT22;7843;50.330;7.312;2023-03-04T17:27:47;5.20;96.60
15483;DHT22;7843;50.330;7.312;2023-03-04T17:30:14;5.20;96.70
15483;DHT22;7843;50.330;7.312;2023-03-04T17:32:41;5.20;96.70
15483;DHT22;7843;50.330;7.312;2023-03-04T17:35:08;5.20;96.80